Time;durP1;ratioP1;P1;durP2;ratioP2;P2;SDS_P1;SDS_P2;PMS_P1;PMS_P2;Temp;Humidity;BMP_temperature;BMP_pressure;BME280_temperature;BME280_humidity;BME280_pressure;Samples;Min_cycle;Max_cycle;Signal;HPM_P1;HPM_P2
2019/04/02 00:00:59;;;;;;;38.3;29.1;;;;;;;9.85;56.33105;959.2134;;;;
2019/04/02 00:03:25;;;;;;;36.8;28.6;;;;;;;9.77;57.07129;959.2056;;;;
2019/04/02 00:05:50;;;;;;;38.6;29.2;;;;;;;9.69;58.16797;959.1642;;;;
2019/04/02 00:08:15;;;;;;;39.8;30.7;;;;;;;9.5;59.06738;959.1467;;;;
2019/04/02 00:10:40;;;;;;;39;30.8;;;;;;;9.38;59.76563;959.2076;;;;
2019/04/02 00:13:05;;;;;;;38.7;30;;;;;;;9.36;59.69336;959.1671;;;;
2019/04/02 00:15:48;;;;;;;38;30.4;;;;;;;9.38;59.58105;959.131;;;;
2019/04/02 00:18:13;;;;;;;39.7;29.7;;;;;;;9.38;57.9541;959.1222;;;;
2019/04/02 00:20:39;;;;;;;38.9;30.4;;;;;;;9.33;58.80078;959.0941;;;;
2019/04/02 00:23:04;;;;;;;43.7;31.5;;;;;;;9.22;59.57031;959.0767;;;;
2019/04/02 00:25:29;;;;;;;42.5;32.1;;;;;;;9.21;59.47559;959.0528;;;;
2019/04/02 00:27:54;;;;;;;40.3;31.3;;;;;;;9.21;58.65918;959.0648;;;;
2019/04/02 00:30:19;;;;;;;43.6;31.9;;;;;;;9.21;58.76074;958.989;;;;
2019/04/02 00:32:44;;;;;;;40;31.3;;;;;;;9.2;58.62109;958.9515;;;;
2019/04/02 00:35:09;;;;;;;34.9;29;;;;;;;9.08;58.34082;958.9604;;;;
2019/04/02 00:37:34;;;;;;;41.6;32.4;;;;;;;9.06;58.64844;958.9462;;;;
2019/04/02 00:40:00;;;;;;;40.9;31;;;;;;;8.97;59.47949;958.943;;;;
2019/04/02 00:42:25;;;;;;;41.2;32.3;;;;;;;8.91;59.52734;958.9672;;;;
2019/04/02 00:44:50;;;;;;;45.1;32.3;;;;;;;8.9;59.43359;958.9553;;;;
2019/04/02 00:47:15;;;;;;;42;33.2;;;;;;;8.87;59.85742;958.9797;;;;
2019/04/02 00:49:40;;;;;;;43;32.2;;;;;;;8.85;60.40723;958.9655;;;;
2019/04/02 00:52:05;;;;;;;43;33.1;;;;;;;8.71;61.57324;958.9983;;;;
2019/04/02 00:54:31;;;;;;;42.9;34;;;;;;;8.74;61.64648;958.8506;;;;
2019/04/02 00:56:56;;;;;;;42.5;32.5;;;;;;;8.79;61.66602;958.9083;;;;
2019/04/02 00:59:21;;;;;;;40.1;31.5;;;;;;;8.78;61.31738;958.8158;;;;
2019/04/02 01:01:46;;;;;;;43.9;32.8;;;;;;;8.81;61.16113;958.8164;;;;
2019/04/02 01:04:11;;;;;;;45.5;33.3;;;;;;;8.85;61.5127;958.8378;;;;
2019/04/02 01:06:36;;;;;;;44.9;32.8;;;;;;;8.73;62.01367;958.8259;;;;
2019/04/02 01:09:01;;;;;;;44.5;34.3;;;;;;;8.65;62.7959;958.8393;;;;
2019/04/02 01:11:29;;;;;;;43.8;34.3;;;;;;;8.65;62.54395;958.8855;;;;
2019/04/02 01:13:52;;;;;;;42;32.5;;;;;;;8.63;62.26465;958.8792;;;;
2019/04/02 01:16:17;;;;;;;43.9;33.7;;;;;;;8.64;62.4043;958.7803;;;;
2019/04/02 01:18:42;;;;;;;45.2;33.6;;;;;;;8.67;62.07422;958.7559;;;;
2019/04/02 01:21:07;;;;;;;47;33.9;;;;;;;8.57;62.77344;958.7583;;;;
2019/04/02 01:23:32;;;;;;;44.7;34.1;;;;;;;8.5;63.20117;958.8218;;;;
2019/04/02 01:25:57;;;;;;;45.1;34.4;;;;;;;8.51;62.85645;958.7819;;;;
2019/04/02 01:31:41;;;;;;;47.8;35.9;;;;;;;8.39;63.66895;958.7531;;;;
2019/04/02 01:34:06;;;;;;;49.5;36.4;;;;;;;8.36;63.85938;958.7819;;;;
2019/04/02 01:36:31;;;;;;;45.6;35;;;;;;;8.4;63.91211;958.777;;;;
2019/04/02 01:38:56;;;;;;;47.5;35.4;;;;;;;8.42;63.76465;958.6694;;;;
2019/04/02 01:41:22;;;;;;;38.3;31.2;;;;;;;8.44;62.3291;958.6235;;;;
2019/04/02 01:43:47;;;;;;;37.9;30.8;;;;;;;8.46;60.65137;958.6043;;;;
2019/04/02 01:46:12;;;;;;;41.9;32.1;;;;;;;8.45;60.11914;958.5764;;;;
2019/04/02 01:48:37;;;;;;;42.4;33.2;;;;;;;8.39;60.60645;958.6128;;;;
2019/04/02 01:51:02;;;;;;;40.6;31.6;;;;;;;8.32;59.89453;958.6202;;;;
2019/04/02 01:53:31;;;;;;;44.2;32.8;;;;;;;8.21;60.50098;958.6022;;;;
2019/04/02 01:55:56;;;;;;;43.6;35.9;;;;;;;8.12;61.19043;958.5399;;;;
2019/04/02 01:58:21;;;;;;;45.2;34.9;;;;;;;8.04;62.30566;958.5316;;;;
2019/04/02 02:00:46;;;;;;;47.2;35.4;;;;;;;7.99;62.40137;958.5204;;;;
2019/04/02 02:03:11;;;;;;;46.2;35.5;;;;;;;7.9;63.15918;958.4922;;;;
2019/04/02 02:05:36;;;;;;;44.2;35.5;;;;;;;7.92;63.3457;958.4899;;;;
2019/04/02 02:08:02;;;;;;;42.9;34;;;;;;;7.93;63.04785;958.5018;;;;
2019/04/02 02:10:27;;;;;;;44.5;34.8;;;;;;;7.87;63.47754;958.4612;;;;
2019/04/02 02:12:52;;;;;;;46.3;36.4;;;;;;;7.9;63.42383;958.462;;;;
2019/04/02 02:15:17;;;;;;;49.7;37.5;;;;;;;7.88;63.69727;958.4684;;;;
2019/04/02 02:17:42;;;;;;;46.9;36.5;;;;;;;7.83;63.99902;958.4059;;;;
2019/04/02 02:20:07;;;;;;;47.3;35.8;;;;;;;7.86;62.84375;958.4151;;;;
2019/04/02 02:22:32;;;;;;;45.3;34.5;;;;;;;7.87;62.68359;958.4525;;;;
2019/04/02 02:24:58;;;;;;;44.6;34.2;;;;;;;7.83;61.91895;958.351;;;;
2019/04/02 02:27:23;;;;;;;44.7;35.3;;;;;;;7.81;62.33105;958.4545;;;;
2019/04/02 02:29:48;;;;;;;46.2;35.8;;;;;;;7.78;62.38379;958.4576;;;;
2019/04/02 02:32:13;;;;;;;46.2;36;;;;;;;7.7;62.82031;958.4199;;;;
2019/04/02 02:34:38;;;;;;;48;36.2;;;;;;;7.66;62.90527;958.4375;;;;
2019/04/02 02:37:03;;;;;;;44.5;34.9;;;;;;;7.63;62.70605;958.4064;;;;
2019/04/02 02:39:28;;;;;;;43.9;34.7;;;;;;;7.56;62.59277;958.4648;;;;
2019/04/02 02:41:53;;;;;;;45.3;35;;;;;;;7.49;62.92578;958.4604;;;;
2019/04/02 02:44:19;;;;;;;48.7;35.8;;;;;;;7.44;63.35547;958.4357;;;;
2019/04/02 02:46:44;;;;;;;47.7;37;;;;;;;7.44;62.54102;958.4094;;;;
2019/04/02 02:49:09;;;;;;;46.8;36.7;;;;;;;7.44;62.62012;958.372;;;;
2019/04/02 02:51:34;;;;;;;50.5;38.4;;;;;;;7.38;63.46094;958.3572;;;;
2019/04/02 02:53:59;;;;;;;54.8;40.3;;;;;;;7.33;63.95996;958.3365;;;;
2019/04/02 02:56:24;;;;;;;56.8;41.6;;;;;;;7.26;65.25879;958.3312;;;;
2019/04/02 02:58:49;;;;;;;59.3;40.6;;;;;;;7.16;65.98926;958.2317;;;;
2019/04/02 03:01:15;;;;;;;51.1;39.7;;;;;;;7.17;65.54102;958.2779;;;;
2019/04/02 03:03:40;;;;;;;53.6;39.7;;;;;;;7.14;65.28613;958.1915;;;;
2019/04/02 03:06:05;;;;;;;55.2;40;;;;;;;7.14;65.89453;958.2042;;;;
2019/04/02 03:08:30;;;;;;;53.6;41;;;;;;;7.06;67.49902;958.1453;;;;
2019/04/02 03:10:55;;;;;;;53.6;39.3;;;;;;;7.1;66.93164;958.0944;;;;
2019/04/02 03:13:21;;;;;;;53.8;39.9;;;;;;;7.12;67.00488;958.0666;;;;
2019/04/02 03:15:46;;;;;;;53.3;41.5;;;;;;;7.05;67.0625;958.142;;;;
2019/04/02 03:18:11;;;;;;;56.9;42.7;;;;;;;6.85;67.47754;958.163;;;;
2019/04/02 03:20:36;;;;;;;56.7;43.2;;;;;;;6.78;67.85645;958.2388;;;;
2019/04/02 03:23:01;;;;;;;57.2;41.5;;;;;;;6.73;67.97559;958.226;;;;
2019/04/02 03:25:26;;;;;;;55;41.3;;;;;;;6.66;67.88379;958.1998;;;;
2019/04/02 03:27:51;;;;;;;58.2;41.6;;;;;;;6.66;68.06641;958.2085;;;;
2019/04/02 03:30:16;;;;;;;54.2;40.4;;;;;;;6.67;68.06934;958.2539;;;;
2019/04/02 03:32:41;;;;;;;48.2;35.9;;;;;;;6.66;66.54297;958.2292;;;;
2019/04/02 03:35:06;;;;;;;45.1;35.2;;;;;;;6.7;65.23145;958.2036;;;;
2019/04/02 03:37:32;;;;;;;48.1;37.8;;;;;;;6.7;65.17383;958.1655;;;;
2019/04/02 03:39:57;;;;;;;49.2;37.7;;;;;;;6.7;64.30078;958.1448;;;;
2019/04/02 03:42:23;;;;;;;51;39.7;;;;;;;6.69;65.22852;958.1124;;;;
2019/04/02 03:44:48;;;;;;;55.3;38.5;;;;;;;6.63;65.32324;958.156;;;;
2019/04/02 03:47:13;;;;;;;49.7;38.7;;;;;;;6.6;65.63867;958.1337;;;;
2019/04/02 03:49:38;;;;;;;53.5;41;;;;;;;6.56;66.05664;958.1513;;;;
2019/04/02 03:52:03;;;;;;;57.1;41.1;;;;;;;6.49;67.04395;958.0519;;;;
2019/04/02 03:54:28;;;;;;;59;41.4;;;;;;;6.47;66.24902;958.1351;;;;
2019/04/02 03:56:53;;;;;;;56.8;42.2;;;;;;;6.39;67.36035;958.0923;;;;
2019/04/02 03:59:18;;;;;;;52.1;40.5;;;;;;;6.36;68.28418;958.0994;;;;
2019/04/02 04:02:27;;;;;;;49;38.6;;;;;;;6.33;66.125;958.0733;;;;
2019/04/02 04:04:52;;;;;;;51.8;39.3;;;;;;;6.29;66.30176;958.0731;;;;
2019/04/02 04:09:47;;;;;;;47.4;37.5;;;;;;;6.22;67.0459;957.9239;;;;
2019/04/02 04:12:24;;;;;;;52.3;38.3;;;;;;;6.18;68.18555;957.8387;;;;
2019/04/02 04:14:49;;;;;;;51;37.4;;;;;;;6.22;68.21582;957.8389;;;;
2019/04/02 04:17:15;;;;;;;57.6;40.2;;;;;;;6.24;67.79492;957.8109;;;;
2019/04/02 04:19:40;;;;;;;53.8;39.8;;;;;;;6.31;67.69043;957.7579;;;;
2019/04/02 04:22:05;;;;;;;54;40.7;;;;;;;6.32;68.6543;957.8628;;;;
2019/04/02 04:24:30;;;;;;;62.7;45.8;;;;;;;6.37;77.39258;957.8699;;;;
2019/04/02 04:26:55;;;;;;;43.4;32.3;;;;;;;6.83;68.37988;957.8474;;;;
2019/04/02 04:29:20;;;;;;;47.4;34.9;;;;;;;6.99;64.65625;957.8044;;;;
2019/04/02 04:31:45;;;;;;;48;35.4;;;;;;;6.94;64.73828;957.8313;;;;
2019/04/02 04:34:10;;;;;;;50;36.6;;;;;;;6.84;65.52637;957.7863;;;;
2019/04/02 04:36:36;;;;;;;51;36.3;;;;;;;6.8;65.15332;957.8293;;;;
2019/04/02 04:39:01;;;;;;;50.4;34.5;;;;;;;6.73;63.88184;957.8317;;;;
2019/04/02 04:41:26;;;;;;;45.7;34.4;;;;;;;6.68;63.49609;957.8041;;;;
2019/04/02 04:43:51;;;;;;;51.5;37.4;;;;;;;6.59;64.46875;957.8508;;;;
2019/04/02 04:46:16;;;;;;;52.9;37.6;;;;;;;6.54;65.60645;957.8438;;;;
2019/04/02 04:48:42;;;;;;;43.5;32.1;;;;;;;6.41;62.72168;957.7857;;;;
2019/04/02 04:51:07;;;;;;;48;33.9;;;;;;;6.37;64.02246;957.7935;;;;
2019/04/02 04:53:32;;;;;;;49.5;34.6;;;;;;;6.34;65.18652;957.8097;;;;
2019/04/02 04:55:57;;;;;;;52.7;37.2;;;;;;;6.24;66.50098;957.8362;;;;
2019/04/02 04:58:22;;;;;;;53.1;38.6;;;;;;;6.23;67.02637;957.9434;;;;
2019/04/02 05:00:48;;;;;;;53.1;37.8;;;;;;;6.26;67.77441;957.8563;;;;
2019/04/02 05:03:13;;;;;;;55.7;39.5;;;;;;;6.25;68.26563;957.9332;;;;
2019/04/02 05:05:38;;;;;;;48.6;35.7;;;;;;;6.25;67.34961;957.9498;;;;
2019/04/02 05:08:03;;;;;;;47.5;34.8;;;;;;;6.26;66.65234;957.9063;;;;
2019/04/02 05:10:28;;;;;;;45.5;34.2;;;;;;;6.3;66.65918;957.9533;;;;
2019/04/02 05:12:53;;;;;;;47.3;35.4;;;;;;;6.26;67.21387;957.9197;;;;
2019/04/02 05:15:18;;;;;;;45;34.5;;;;;;;6.18;67.87695;957.9356;;;;
2019/04/02 05:17:44;;;;;;;42.8;33.4;;;;;;;6.26;67.67188;957.8816;;;;
2019/04/02 05:20:09;;;;;;;44.9;34.1;;;;;;;6.34;67.93652;957.8692;;;;
2019/04/02 05:22:34;;;;;;;47.1;35;;;;;;;6.38;68.53906;957.8476;;;;
2019/04/02 05:24:59;;;;;;;46.9;35.2;;;;;;;6.46;68.43652;957.878;;;;
2019/04/02 05:27:30;;;;;;;49.7;34.9;;;;;;;6.46;68.41309;957.8653;;;;
2019/04/02 05:29:55;;;;;;;47;35.8;;;;;;;6.55;68.17578;957.8303;;;;
2019/04/02 05:32:20;;;;;;;50.1;36.7;;;;;;;6.51;68.18066;957.8342;;;;
2019/04/02 05:34:45;;;;;;;48.5;34.5;;;;;;;6.56;68.09668;957.851;;;;
2019/04/02 05:37:11;;;;;;;48.9;35.5;;;;;;;6.52;68.20508;957.8962;;;;
2019/04/02 05:39:36;;;;;;;47.2;35.4;;;;;;;6.66;68.12402;957.9033;;;;
2019/04/02 05:42:01;;;;;;;52.8;35.3;;;;;;;6.75;67.875;957.8809;;;;
2019/04/02 05:44:26;;;;;;;47.1;34;;;;;;;6.86;67.57227;957.8522;;;;
2019/04/02 05:46:51;;;;;;;46.9;34.3;;;;;;;6.92;67.38574;957.8201;;;;
2019/04/02 05:49:16;;;;;;;47;34.7;;;;;;;7.01;67.36426;957.8242;;;;
2019/04/02 05:51:42;;;;;;;50.2;33.8;;;;;;;7.14;67.01758;957.7762;;;;
2019/04/02 05:54:06;;;;;;;50.7;36;;;;;;;7.15;66.98633;957.8089;;;;
2019/04/02 05:56:32;;;;;;;51.7;34.6;;;;;;;7.19;66.70508;957.8173;;;;
2019/04/02 05:58:57;;;;;;;47;34.1;;;;;;;7.14;66.92773;957.7802;;;;
2019/04/02 06:01:22;;;;;;;48.9;33.8;;;;;;;7.26;67.30176;957.7338;;;;
2019/04/02 06:03:47;;;;;;;46.3;34.3;;;;;;;7.28;68.0752;957.7009;;;;
2019/04/02 06:06:12;;;;;;;49.5;34.8;;;;;;;7.3;67.36426;957.755;;;;
2019/04/02 06:08:38;;;;;;;45.4;32.5;;;;;;;7.41;67.45117;957.7045;;;;
2019/04/02 06:11:03;;;;;;;44;31.5;;;;;;;7.43;67.05273;957.6559;;;;
2019/04/02 06:13:28;;;;;;;47.2;32.8;;;;;;;7.53;67.11328;957.6578;;;;
2019/04/02 06:15:53;;;;;;;45;31.9;;;;;;;7.55;66.39355;957.63;;;;
2019/04/02 06:18:20;;;;;;;48.2;31.9;;;;;;;7.58;66.4209;957.6728;;;;
2019/04/02 06:20:44;;;;;;;44;31.4;;;;;;;7.6;65.80371;957.5948;;;;
2019/04/02 06:23:09;;;;;;;44.5;30.2;;;;;;;7.61;65.26465;957.6577;;;;
2019/04/02 06:25:34;;;;;;;46.4;31.7;;;;;;;7.48;65.99219;957.6248;;;;
2019/04/02 06:27:59;;;;;;;48.4;33;;;;;;;7.48;66.46289;957.6287;;;;
2019/04/02 06:30:25;;;;;;;50;32.5;;;;;;;7.59;66.37695;957.6131;;;;
2019/04/02 06:32:50;;;;;;;52.7;33.9;;;;;;;7.66;66.19238;957.6262;;;;
2019/04/02 06:35:15;;;;;;;46.3;31.9;;;;;;;7.7;65.96875;957.6006;;;;
2019/04/02 06:37:40;;;;;;;49;32.3;;;;;;;7.76;65.80469;957.6153;;;;
2019/04/02 06:40:05;;;;;;;47;32.3;;;;;;;7.78;65.8877;957.5922;;;;
2019/04/02 06:42:30;;;;;;;48.7;33.1;;;;;;;7.74;65.92871;957.5796;;;;
2019/04/02 06:44:55;;;;;;;52.1;34.3;;;;;;;7.79;65.78711;957.5309;;;;
2019/04/02 06:47:46;;;;;;;50.4;34.9;;;;;;;7.89;66.18164;957.4777;;;;
2019/04/02 06:49:48;;;;;;;50.7;34.7;;;;;;;8.08;66.77441;957.5075;;;;
2019/04/02 06:52:11;;;;;;;50.3;34.9;;;;;;;8.21;66.19629;957.4421;;;;
2019/04/02 06:54:36;;;;;;;50;35.4;;;;;;;8.25;64.83105;957.4595;;;;
2019/04/02 06:57:01;;;;;;;53.1;35.8;;;;;;;8.33;65.73145;957.4799;;;;
2019/04/02 06:59:26;;;;;;;53.3;36.6;;;;;;;8.44;65.64355;957.4128;;;;
2019/04/02 07:01:51;;;;;;;52.9;36.5;;;;;;;8.52;65.41602;957.4586;;;;
2019/04/02 07:04:17;;;;;;;50.5;35.4;;;;;;;8.66;64.90723;957.4252;;;;
2019/04/02 07:06:42;;;;;;;57.3;36.5;;;;;;;8.71;63.49707;957.4241;;;;
2019/04/02 07:09:07;;;;;;;52.8;36.6;;;;;;;8.82;64.2168;957.4158;;;;
2019/04/02 07:11:32;;;;;;;54;38.4;;;;;;;8.92;65.34863;957.4261;;;;
2019/04/02 07:13:57;;;;;;;55.8;37.5;;;;;;;9.07;64.84082;957.3576;;;;
2019/04/02 07:16:22;;;;;;;56.5;37.2;;;;;;;9.14;62.85645;957.4094;;;;
2019/04/02 07:18:49;;;;;;;61.2;40.9;;;;;;;9.24;63.86328;957.3253;;;;
2019/04/02 07:21:12;;;;;;;57.3;41.1;;;;;;;9.32;62.98828;957.3795;;;;
2019/04/02 07:23:38;;;;;;;60.3;41.8;;;;;;;9.52;63.95117;957.3859;;;;
2019/04/02 07:26:03;;;;;;;63.7;42.3;;;;;;;9.6;62.72656;957.3386;;;;
2019/04/02 07:28:28;;;;;;;57.9;42.4;;;;;;;9.72;63.4375;957.4009;;;;
2019/04/02 07:30:53;;;;;;;61.2;44.2;;;;;;;9.82;63.55664;957.3253;;;;
2019/04/02 07:33:19;;;;;;;59.1;43.3;;;;;;;9.98;63.31445;957.3703;;;;
2019/04/02 07:35:43;;;;;;;61.1;43;;;;;;;10.15;62.20605;957.2776;;;;
2019/04/02 07:38:08;;;;;;;63.7;44.3;;;;;;;10.26;63.18164;957.2475;;;;
2019/04/02 07:40:34;;;;;;;60.4;43.7;;;;;;;10.4;62.09277;957.3153;;;;
2019/04/02 07:42:59;;;;;;;60.9;43.1;;;;;;;10.49;62.04785;957.275;;;;
2019/04/02 07:45:27;;;;;;;60.3;43.9;;;;;;;10.56;62.0918;957.2498;;;;
2019/04/02 07:47:53;;;;;;;60.1;42.2;;;;;;;10.76;61.50684;957.2551;;;;
2019/04/02 07:50:18;;;;;;;55.6;42;;;;;;;10.98;60.6709;957.2744;;;;
2019/04/02 07:52:44;;;;;;;62.7;44.3;;;;;;;11.06;60.89063;957.1873;;;;
2019/04/02 07:55:09;;;;;;;60.9;44.3;;;;;;;11.19;59.91309;957.1967;;;;
2019/04/02 07:57:34;;;;;;;58;43.2;;;;;;;11.32;59.2334;957.1815;;;;
2019/04/02 07:59:59;;;;;;;56.8;42.1;;;;;;;11.46;58.92969;957.1635;;;;
2019/04/02 08:02:25;;;;;;;57;43.1;;;;;;;11.66;59.84863;957.2282;;;;
2019/04/02 08:04:50;;;;;;;60.4;43.5;;;;;;;11.77;59.06348;957.2397;;;;
2019/04/02 08:07:15;;;;;;;61.1;45.4;;;;;;;11.82;58.57227;957.3022;;;;
2019/04/02 08:09:40;;;;;;;58.3;44.3;;;;;;;11.88;59.05664;957.2469;;;;
2019/04/02 08:12:05;;;;;;;58.8;45.5;;;;;;;11.87;58.25293;957.2787;;;;
2019/04/02 08:14:30;;;;;;;58.9;44.9;;;;;;;12.02;59.04102;957.2592;;;;
2019/04/02 08:16:56;;;;;;;60;45.5;;;;;;;12.14;58.64941;957.36;;;;
2019/04/02 08:19:21;;;;;;;59.6;45.1;;;;;;;12.31;59.04492;957.3505;;;;
2019/04/02 08:21:46;;;;;;;61.8;45.8;;;;;;;12.37;57.70605;957.2833;;;;
2019/04/02 08:24:11;;;;;;;59.2;44.5;;;;;;;12.47;57.89258;957.3041;;;;
2019/04/02 08:26:36;;;;;;;59.1;44.8;;;;;;;12.62;58.16797;957.2341;;;;
2019/04/02 08:29:01;;;;;;;63.7;46.9;;;;;;;12.78;57.59766;957.1956;;;;
2019/04/02 08:31:29;;;;;;;64.5;47.4;;;;;;;12.96;58.42285;957.2278;;;;
2019/04/02 08:33:53;;;;;;;59.8;46.2;;;;;;;13.16;56.53027;957.2098;;;;
2019/04/02 08:36:19;;;;;;;60.6;45.5;;;;;;;13.41;56.74805;957.1597;;;;
2019/04/02 08:38:44;;;;;;;64.5;48.3;;;;;;;13.55;56.10254;957.2314;;;;
2019/04/02 08:41:09;;;;;;;59.3;44.3;;;;;;;13.6;57.16895;957.2205;;;;
2019/04/02 08:43:35;;;;;;;59.8;45.1;;;;;;;13.76;55.57031;957.2542;;;;
2019/04/02 08:46:00;;;;;;;56.9;44.6;;;;;;;13.88;54.6416;957.1785;;;;
2019/04/02 08:48:25;;;;;;;56.1;43.4;;;;;;;14.09;54.64453;957.1495;;;;
2019/04/02 08:50:50;;;;;;;55.3;42.8;;;;;;;14.25;54.33789;957.097;;;;
2019/04/02 08:53:15;;;;;;;59.8;47;;;;;;;14.42;53.77539;957.0999;;;;
2019/04/02 08:55:41;;;;;;;56.6;44.7;;;;;;;14.6;51.60156;957.063;;;;
2019/04/02 08:58:06;;;;;;;54.1;43.5;;;;;;;14.81;50.96094;957.0076;;;;
2019/04/02 09:00:31;;;;;;;51.8;42;;;;;;;14.95;50.88379;956.9925;;;;
2019/04/02 09:03:13;;;;;;;53.1;42.8;;;;;;;15.12;51.60547;957.0372;;;;
2019/04/02 09:05:38;;;;;;;55.4;43.6;;;;;;;15.25;49.07031;956.9377;;;;
2019/04/02 09:08:04;;;;;;;55.3;44;;;;;;;15.34;49.02246;956.9716;;;;
2019/04/02 09:10:29;;;;;;;58.4;43.5;;;;;;;15.41;48.67969;956.9578;;;;
2019/04/02 09:12:54;;;;;;;55;42.5;;;;;;;15.57;47.44531;956.9821;;;;
2019/04/02 09:15:19;;;;;;;52.8;42.3;;;;;;;15.85;48.30664;956.9465;;;;
2019/04/02 09:17:44;;;;;;;55.7;43;;;;;;;16.03;47.4248;956.972;;;;
2019/04/02 09:20:09;;;;;;;54.2;43;;;;;;;16.08;47.36035;956.8738;;;;
2019/04/02 09:22:34;;;;;;;54.5;42.7;;;;;;;16.21;46.0957;956.9286;;;;
2019/04/02 09:25:00;;;;;;;55;43.2;;;;;;;16.34;46.69629;956.875;;;;
2019/04/02 09:27:26;;;;;;;55.7;43.4;;;;;;;16.56;45.60449;956.7921;;;;
2019/04/02 09:29:51;;;;;;;53;41;;;;;;;16.67;44.83105;956.8491;;;;
2019/04/02 09:32:16;;;;;;;53.9;42.9;;;;;;;16.71;45.75;956.8217;;;;
2019/04/02 09:34:41;;;;;;;53;43;;;;;;;16.78;45.58105;956.8155;;;;
2019/04/02 09:37:06;;;;;;;50.6;41.2;;;;;;;17.01;44.61816;956.8333;;;;
2019/04/02 09:39:31;;;;;;;54.1;41.8;;;;;;;17.22;44.1709;956.7885;;;;
2019/04/02 09:41:56;;;;;;;51.7;41.5;;;;;;;17.44;43.22852;956.7474;;;;
2019/04/02 09:44:22;;;;;;;52.7;41;;;;;;;17.49;42.09375;956.7733;;;;
2019/04/02 09:46:48;;;;;;;53.7;40.1;;;;;;;17.68;44.12207;956.707;;;;
2019/04/02 09:49:13;;;;;;;51.3;39.7;;;;;;;17.69;40.87695;956.7228;;;;
2019/04/02 09:51:38;;;;;;;49.4;39;;;;;;;17.79;41.71094;956.6728;;;;
2019/04/02 09:54:04;;;;;;;51.2;38.3;;;;;;;17.76;41.69629;956.6467;;;;
2019/04/02 09:56:29;;;;;;;49.5;38.4;;;;;;;17.88;40.54199;956.6035;;;;
2019/04/02 09:58:55;;;;;;;49.8;39.4;;;;;;;17.97;40.31543;956.5673;;;;
2019/04/02 10:01:19;;;;;;;47.8;37.5;;;;;;;18.2;41.36035;956.5413;;;;
2019/04/02 10:03:44;;;;;;;46.5;35.4;;;;;;;18.19;38.82813;956.5903;;;;
2019/04/02 10:06:09;;;;;;;48.3;36.8;;;;;;;18.12;38.10449;956.5049;;;;
2019/04/02 10:08:35;;;;;;;45.9;35;;;;;;;18.27;38.72949;956.4478;;;;
2019/04/02 10:11:47;;;;;;;42.8;33.4;;;;;;;18.42;37.05762;956.3775;;;;
2019/04/02 10:14:12;;;;;;;45.3;34.7;;;;;;;18.56;39.91016;956.2683;;;;
2019/04/02 10:16:38;;;;;;;46.6;32.2;;;;;;;18.63;38.07813;956.3536;;;;
2019/04/02 10:19:02;;;;;;;46.4;33.9;;;;;;;18.62;38.1709;956.3289;;;;
2019/04/02 10:21:28;;;;;;;48;33.6;;;;;;;18.82;38.05859;956.2498;;;;
2019/04/02 10:23:53;;;;;;;43.8;32.5;;;;;;;18.94;36.08691;956.1969;;;;
2019/04/02 10:26:18;;;;;;;48.3;34.4;;;;;;;19.26;35.52344;956.1763;;;;
2019/04/02 10:28:44;;;;;;;47.1;31.1;;;;;;;19.47;36.28418;956.1163;;;;
2019/04/02 10:31:09;;;;;;;41.8;31.2;;;;;;;19.56;35.96094;956.1071;;;;
2019/04/02 10:33:33;;;;;;;42.5;31.7;;;;;;;19.66;35.1543;956.1028;;;;
2019/04/02 10:35:58;;;;;;;41.8;31.3;;;;;;;19.77;33.70996;955.9688;;;;
2019/04/02 10:38:23;;;;;;;41.8;30.1;;;;;;;20.05;35.1377;955.9622;;;;
2019/04/02 10:40:49;;;;;;;40.9;29.9;;;;;;;20.34;32.7002;955.8406;;;;
2019/04/02 10:43:14;;;;;;;40.8;30.1;;;;;;;20.61;32.09277;955.9012;;;;
2019/04/02 10:45:40;;;;;;;40.1;30.4;;;;;;;20.9;31.85254;955.8622;;;;
2019/04/02 10:48:04;;;;;;;38;28.7;;;;;;;21.2;31.08008;955.856;;;;
2019/04/02 10:50:29;;;;;;;40.5;29.1;;;;;;;21.33;32.38281;955.7939;;;;
2019/04/02 10:52:54;;;;;;;41.5;29.7;;;;;;;21.52;30.86621;955.8541;;;;
2019/04/02 10:55:19;;;;;;;38.5;28.5;;;;;;;21.66;30.70996;955.7333;;;;
2019/04/02 10:57:45;;;;;;;39.6;27.5;;;;;;;21.67;29.1084;955.7112;;;;
2019/04/02 11:00:10;;;;;;;38.8;27.7;;;;;;;21.65;31.25488;955.6057;;;;
2019/04/02 11:02:37;;;;;;;39.9;28.4;;;;;;;21.73;30.41797;955.6004;;;;
2019/04/02 11:05:10;;;;;;;41.6;28.9;;;;;;;22.04;29.45313;955.5472;;;;
2019/04/02 11:07:32;;;;;;;39.8;28.1;;;;;;;22.42;28.27832;955.5076;;;;
2019/04/02 11:09:57;;;;;;;39.3;28;;;;;;;22.82;30.59961;955.4651;;;;
2019/04/02 11:12:24;;;;;;;35.8;25.6;;;;;;;23.03;29.7334;955.506;;;;
2019/04/02 11:14:49;;;;;;;40;27.6;;;;;;;23.15;28.66992;955.4767;;;;
2019/04/02 11:17:14;;;;;;;37.7;27.6;;;;;;;23.31;27.55957;955.3924;;;;
2019/04/02 11:19:39;;;;;;;38.9;28.2;;;;;;;23.51;28.99121;955.313;;;;
2019/04/02 11:22:05;;;;;;;38.5;27;;;;;;;23.82;28.10547;955.3133;;;;
2019/04/02 11:24:29;;;;;;;36.9;27.4;;;;;;;24.1;27.22754;955.2888;;;;
2019/04/02 11:26:54;;;;;;;41.3;29.2;;;;;;;24.28;24.93457;955.2271;;;;
2019/04/02 11:29:20;;;;;;;38.7;27.8;;;;;;;24.23;25.02734;955.1492;;;;
2019/04/02 11:31:45;;;;;;;40.2;27.7;;;;;;;24.18;24.37988;955.1571;;;;
2019/04/02 11:34:15;;;;;;;42.1;30.2;;;;;;;24.15;26.2041;955.118;;;;
2019/04/02 11:36:44;;;;;;;41.8;29;;;;;;;24.21;25.90918;955.1177;;;;
2019/04/02 11:39:10;;;;;;;39.7;29.5;;;;;;;24.19;27.18555;955.0497;;;;
2019/04/02 11:41:35;;;;;;;41.8;28.9;;;;;;;24.53;27.18164;955.002;;;;
2019/04/02 11:43:59;;;;;;;38.7;28.3;;;;;;;24.89;25.38672;955.0148;;;;
2019/04/02 11:46:27;;;;;;;41.5;29.1;;;;;;;24.99;25.41699;954.9391;;;;
2019/04/02 11:48:51;;;;;;;38;26.1;;;;;;;25.23;26.20801;954.9384;;;;
2019/04/02 11:51:20;;;;;;;33.8;23.9;;;;;;;25.24;23.87598;954.8702;;;;
2019/04/02 11:53:45;;;;;;;48.2;24.8;;;;;;;25.33;23.19922;954.8806;;;;
2019/04/02 11:56:11;;;;;;;28.5;19.6;;;;;;;25.56;24.25195;954.8234;;;;
2019/04/02 11:58:36;;;;;;;32.4;22.3;;;;;;;25.77;21.76074;954.6839;;;;
2019/04/02 12:01:02;;;;;;;29.2;19.8;;;;;;;26.13;22.47266;954.603;;;;
2019/04/02 12:03:27;;;;;;;26.5;18.8;;;;;;;26.47;24.31348;954.6465;;;;
2019/04/02 12:05:51;;;;;;;36.7;24.7;;;;;;;26.74;21.00293;954.5613;;;;
2019/04/02 12:08:17;;;;;;;24.7;17.2;;;;;;;26.96;19.5127;954.5057;;;;
2019/04/02 12:10:41;;;;;;;35.9;24.5;;;;;;;26.69;21.3125;954.587;;;;
2019/04/02 12:13:07;;;;;;;50.3;35.5;;;;;;;26.81;21.0791;954.4584;;;;
2019/04/02 12:15:34;;;;;;;25;17.3;;;;;;;26.93;17.02637;954.4444;;;;
2019/04/02 12:18:00;;;;;;;24;16.9;;;;;;;27.13;19.11133;954.3926;;;;
2019/04/02 12:20:25;;;;;;;23.9;17.4;;;;;;;27.3;17.97656;954.3167;;;;
2019/04/02 12:22:51;;;;;;;22;15.6;;;;;;;27.02;19.09473;954.2913;;;;
2019/04/02 12:25:16;;;;;;;24.6;17.1;;;;;;;26.49;17.59668;954.2067;;;;
2019/04/02 12:27:41;;;;;;;22.3;16.6;;;;;;;25.97;18.35547;954.2358;;;;
2019/04/02 12:30:06;;;;;;;24.1;16.8;;;;;;;26.21;19.68359;954.1592;;;;
2019/04/02 12:32:31;;;;;;;23.1;16.2;;;;;;;26.4;18.40918;954.1178;;;;
2019/04/02 12:34:56;;;;;;;22.2;14.1;;;;;;;26.23;19.6123;954.1208;;;;
2019/04/02 12:37:21;;;;;;;26;17.2;;;;;;;26.24;18.87012;954.0825;;;;
2019/04/02 12:39:47;;;;;;;28.2;22.1;;;;;;;26.37;19.01953;954.0186;;;;
2019/04/02 12:42:12;;;;;;;22.9;15.2;;;;;;;26.48;17.89648;954.0413;;;;
2019/04/02 12:44:37;;;;;;;22.4;15;;;;;;;26.23;18.94141;954.1077;;;;
2019/04/02 12:47:02;;;;;;;18.6;14.3;;;;;;;26.58;18.4043;953.992;;;;
2019/04/02 12:49:27;;;;;;;22.8;16.6;;;;;;;26.99;16.51172;953.877;;;;
2019/04/02 12:51:52;;;;;;;22.1;14.3;;;;;;;27.5;16.71094;953.8818;;;;
2019/04/02 12:54:17;;;;;;;22.4;15.8;;;;;;;27.23;16.62891;953.8308;;;;
2019/04/02 12:56:43;;;;;;;19.7;14;;;;;;;27.65;16.47656;953.7994;;;;
2019/04/02 12:59:08;;;;;;;19.3;13.6;;;;;;;28.02;15.18945;953.832;;;;
2019/04/02 13:01:33;;;;;;;16.5;12.3;;;;;;;27.7;18.08887;953.8428;;;;
2019/04/02 13:03:58;;;;;;;18.4;13.4;;;;;;;27.02;15.98438;953.7566;;;;
2019/04/02 13:06:23;;;;;;;16.6;12.7;;;;;;;26.82;16.94922;953.7045;;;;
2019/04/02 13:08:48;;;;;;;19.1;12.9;;;;;;;26.73;14.79785;953.6435;;;;
2019/04/02 13:11:13;;;;;;;16.8;13;;;;;;;26.72;16.59766;953.6227;;;;
2019/04/02 13:13:43;;;;;;;18.8;13.4;;;;;;;26.71;15.85352;953.6333;;;;
2019/04/02 13:16:06;;;;;;;16.5;12.3;;;;;;;26.9;17.3125;953.5173;;;;
2019/04/02 13:18:31;;;;;;;17.5;12.7;;;;;;;27.18;15.1377;953.5281;;;;
2019/04/02 13:20:56;;;;;;;16;12.2;;;;;;;27.61;14.38184;953.4348;;;;
2019/04/02 13:23:22;;;;;;;15.4;12;;;;;;;27.88;15.3291;953.4646;;;;
2019/04/02 13:25:47;;;;;;;15.6;13;;;;;;;28.17;14.48438;953.4289;;;;
2019/04/02 13:28:12;;;;;;;17.4;13.5;;;;;;;27.99;13.70801;953.372;;;;
2019/04/02 13:30:37;;;;;;;17.2;12.6;;;;;;;27.48;14.66602;953.3696;;;;
2019/04/02 13:33:02;;;;;;;14.8;11.8;;;;;;;27.09;14.58105;953.2571;;;;
2019/04/02 13:35:27;;;;;;;17.1;12.5;;;;;;;27.02;14.74805;953.2704;;;;
2019/04/02 13:37:53;;;;;;;14.5;11.7;;;;;;;26.75;16.55078;953.1834;;;;
2019/04/02 13:40:18;;;;;;;17.1;12.8;;;;;;;26.25;17.35938;953.2203;;;;
2019/04/02 13:42:43;;;;;;;17.7;12.9;;;;;;;25.74;17.21973;953.2264;;;;
2019/04/02 13:45:08;;;;;;;17.4;12.3;;;;;;;25.62;17.25195;953.1303;;;;
2019/04/02 13:47:34;;;;;;;17.5;12.4;;;;;;;26.02;16.2002;953.0808;;;;
2019/04/02 13:49:59;;;;;;;14.6;11.3;;;;;;;26.58;17.99609;953.0428;;;;
2019/04/02 13:52:24;;;;;;;17.5;12.3;;;;;;;26.84;15.82227;953.092;;;;
2019/04/02 13:54:51;;;;;;;18.5;12.4;;;;;;;26.71;15.45703;953.074;;;;
2019/04/02 13:57:14;;;;;;;15;11.9;;;;;;;26.45;15.50781;953.0942;;;;
2019/04/02 13:59:39;;;;;;;15;11.1;;;;;;;26.49;16.99707;952.9989;;;;
2019/04/02 14:02:04;;;;;;;13.7;10.4;;;;;;;26.82;15.50879;952.9597;;;;
2019/04/02 14:04:30;;;;;;;13.8;10.8;;;;;;;26.82;15.2207;952.9559;;;;